sensor_id;sensor_type;location;lat;lon;timestamp;temperature;humidity
83964;DHT22;73994;50.868;5.420;2024-02-26T00:02:14;8.10;66.90
83964;DHT22;73994;50.868;5.420;2024-02-26T00:04:40;8.10;67.10
83964;DHT22;73994;50.868;5.420;2024-02-26T00:07:06;8.10;67.20
83964;DHT22;73994;50.868;5.420;2024-02-26T00:09:32;8.10;67.70
83964;DHT22;73994;50.868;5.420;2024-02-26T00:12:01;8.00;67.70
83964;DHT22;73994;50.868;5.420;2024-02-26T00:14:27;8.00;68.00
83964;DHT22;73994;50.868;5.420;2024-02-26T00:16:52;8.00;67.60
83964;DHT22;73994;50.868;5.420;2024-02-26T00:19:18;8.00;67.90
83964;DHT22;73994;50.868;5.420;2024-02-26T00:21:44;8.00;67.90
83964;DHT22;73994;50.868;5.420;2024-02-26T00:24:09;8.00;68.20
83964;DHT22;73994;50.868;5.420;2024-02-26T00:26:35;7.90;68.30
83964;DHT22;73994;50.868;5.420;2024-02-26T00:29:01;7.90;68.50
83964;DHT22;73994;50.868;5.420;2024-02-26T00:31:26;7.80;68.70
83964;DHT22;73994;50.868;5.420;2024-02-26T00:33:52;7.80;69.20
83964;DHT22;73994;50.868;5.420;2024-02-26T00:36:18;7.80;69.10
83964;DHT22;73994;50.868;5.420;2024-02-26T00:38:46;7.80;69.10
83964;DHT22;73994;50.868;5.420;2024-02-26T00:41:16;7.80;69.20
83964;DHT22;73994;50.868;5.420;2024-02-26T00:43:42;7.80;69.30
83964;DHT22;73994;50.868;5.420;2024-02-26T00:46:08;7.80;69.80
83964;DHT22;73994;50.868;5.420;2024-02-26T00:48:34;7.80;69.40
83964;DHT22;73994;50.868;5.420;2024-02-26T00:50:59;7.80;69.30
83964;DHT22;73994;50.868;5.420;2024-02-26T00:53:25;7.80;70.00
83964;DHT22;73994;50.868;5.420;2024-02-26T00:55:51;7.70;69.80
83964;DHT22;73994;50.868;5.420;2024-02-26T00:58:17;7.70;69.90
83964;DHT22;73994;50.868;5.420;2024-02-26T01:00:42;7.70;69.90
83964;DHT22;73994;50.868;5.420;2024-02-26T01:03:08;7.60;70.30
83964;DHT22;73994;50.868;5.420;2024-02-26T01:05:35;7.60;70.60
83964;DHT22;73994;50.868;5.420;2024-02-26T01:08:01;7.60;72.60
83964;DHT22;73994;50.868;5.420;2024-02-26T01:10:28;7.50;72.40
83964;DHT22;73994;50.868;5.420;2024-02-26T01:12:53;7.50;72.30
83964;DHT22;73994;50.868;5.420;2024-02-26T01:15:19;7.50;72.20
83964;DHT22;73994;50.868;5.420;2024-02-26T01:17:52;7.50;72.70
83964;DHT22;73994;50.868;5.420;2024-02-26T01:20:18;7.50;71.80
83964;DHT22;73994;50.868;5.420;2024-02-26T01:22:44;7.50;72.10
83964;DHT22;73994;50.868;5.420;2024-02-26T01:25:10;7.50;72.30
83964;DHT22;73994;50.868;5.420;2024-02-26T01:27:36;7.50;72.30
83964;DHT22;73994;50.868;5.420;2024-02-26T01:30:06;7.50;73.20
83964;DHT22;73994;50.868;5.420;2024-02-26T01:32:32;7.50;72.70
83964;DHT22;73994;50.868;5.420;2024-02-26T01:34:58;7.50;72.30
83964;DHT22;73994;50.868;5.420;2024-02-26T01:37:23;7.40;73.50
83964;DHT22;73994;50.868;5.420;2024-02-26T01:39:49;7.40;73.00
83964;DHT22;73994;50.868;5.420;2024-02-26T01:42:15;7.40;73.40
83964;DHT22;73994;50.868;5.420;2024-02-26T01:44:40;7.40;72.90
83964;DHT22;73994;50.868;5.420;2024-02-26T01:47:10;7.40;73.20
83964;DHT22;73994;50.868;5.420;2024-02-26T01:49:36;7.40;73.40
83964;DHT22;73994;50.868;5.420;2024-02-26T01:52:04;7.40;72.90
83964;DHT22;73994;50.868;5.420;2024-02-26T01:54:31;7.30;73.20
83964;DHT22;73994;50.868;5.420;2024-02-26T01:56:57;7.30;73.90
83964;DHT22;73994;50.868;5.420;2024-02-26T01:59:23;7.20;73.70
83964;DHT22;73994;50.868;5.420;2024-02-26T02:01:54;7.30;74.00
83964;DHT22;73994;50.868;5.420;2024-02-26T02:04:21;7.30;73.90
83964;DHT22;73994;50.868;5.420;2024-02-26T02:06:48;7.20;74.00
83964;DHT22;73994;50.868;5.420;2024-02-26T02:09:14;7.20;74.00
83964;DHT22;73994;50.868;5.420;2024-02-26T02:11:40;7.20;74.20
83964;DHT22;73994;50.868;5.420;2024-02-26T02:14:06;7.20;73.60
83964;DHT22;73994;50.868;5.420;2024-02-26T02:16:31;7.20;73.70
83964;DHT22;73994;50.868;5.420;2024-02-26T02:18:58;7.20;73.80
83964;DHT22;73994;50.868;5.420;2024-02-26T02:21:24;7.20;73.80
83964;DHT22;73994;50.868;5.420;2024-02-26T02:23:50;7.20;73.40
83964;DHT22;73994;50.868;5.420;2024-02-26T02:26:16;7.20;73.80
83964;DHT22;73994;50.868;5.420;2024-02-26T02:28:43;7.20;73.60
83964;DHT22;73994;50.868;5.420;2024-02-26T02:31:12;7.20;73.40
83964;DHT22;73994;50.868;5.420;2024-02-26T02:33:38;7.20;73.90
83964;DHT22;73994;50.868;5.420;2024-02-26T02:36:04;7.20;73.70
83964;DHT22;73994;50.868;5.420;2024-02-26T02:38:29;7.20;74.10
83964;DHT22;73994;50.868;5.420;2024-02-26T02:40:57;7.20;73.90
83964;DHT22;73994;50.868;5.420;2024-02-26T02:43:22;7.20;74.70
83964;DHT22;73994;50.868;5.420;2024-02-26T02:45:48;7.20;74.70
83964;DHT22;73994;50.868;5.420;2024-02-26T02:48:14;7.20;74.70
83964;DHT22;73994;50.868;5.420;2024-02-26T02:50:40;7.10;75.20
83964;DHT22;73994;50.868;5.420;2024-02-26T02:53:06;7.10;75.10
83964;DHT22;73994;50.868;5.420;2024-02-26T02:55:31;7.10;75.10
83964;DHT22;73994;50.868;5.420;2024-02-26T02:57:57;7.10;75.20
83964;DHT22;73994;50.868;5.420;2024-02-26T03:00:23;7.00;75.70
83964;DHT22;73994;50.868;5.420;2024-02-26T03:02:49;7.00;76.00
83964;DHT22;73994;50.868;5.420;2024-02-26T03:05:15;7.00;75.50
83964;DHT22;73994;50.868;5.420;2024-02-26T03:07:40;7.00;76.10
83964;DHT22;73994;50.868;5.420;2024-02-26T03:10:06;7.00;75.90
83964;DHT22;73994;50.868;5.420;2024-02-26T03:12:33;7.00;75.60
83964;DHT22;73994;50.868;5.420;2024-02-26T03:14:59;7.00;75.40
83964;DHT22;73994;50.868;5.420;2024-02-26T03:17:28;7.00;75.60
83964;DHT22;73994;50.868;5.420;2024-02-26T03:19:54;7.00;75.50
83964;DHT22;73994;50.868;5.420;2024-02-26T03:22:20;7.00;75.20
83964;DHT22;73994;50.868;5.420;2024-02-26T03:24:46;7.00;75.20
83964;DHT22;73994;50.868;5.420;2024-02-26T03:27:12;7.00;75.10
83964;DHT22;73994;50.868;5.420;2024-02-26T03:29:38;7.00;75.30
83964;DHT22;73994;50.868;5.420;2024-02-26T03:32:05;7.00;74.90
83964;DHT22;73994;50.868;5.420;2024-02-26T03:34:32;7.00;74.70
83964;DHT22;73994;50.868;5.420;2024-02-26T03:37:00;7.00;74.90
83964;DHT22;73994;50.868;5.420;2024-02-26T03:39:26;7.00;74.70
83964;DHT22;73994;50.868;5.420;2024-02-26T03:41:52;7.00;74.60
83964;DHT22;73994;50.868;5.420;2024-02-26T03:44:17;7.00;74.90
83964;DHT22;73994;50.868;5.420;2024-02-26T03:46:43;7.00;74.70
83964;DHT22;73994;50.868;5.420;2024-02-26T03:49:09;7.00;74.70
83964;DHT22;73994;50.868;5.420;2024-02-26T03:51:35;7.00;75.10
83964;DHT22;73994;50.868;5.420;2024-02-26T03:54:01;7.00;74.70
83964;DHT22;73994;50.868;5.420;2024-02-26T03:56:27;7.00;74.60
83964;DHT22;73994;50.868;5.420;2024-02-26T03:58:53;7.00;74.50
83964;DHT22;73994;50.868;5.420;2024-02-26T04:01:19;7.00;74.60
83964;DHT22;73994;50.868;5.420;2024-02-26T04:03:44;7.00;74.60
83964;DHT22;73994;50.868;5.420;2024-02-26T04:06:11;7.00;74.40
83964;DHT22;73994;50.868;5.420;2024-02-26T04:08:37;7.00;74.20
83964;DHT22;73994;50.868;5.420;2024-02-26T04:11:03;7.00;74.20
83964;DHT22;73994;50.868;5.420;2024-02-26T04:13:36;7.00;74.00
83964;DHT22;73994;50.868;5.420;2024-02-26T04:16:07;7.00;74.10
83964;DHT22;73994;50.868;5.420;2024-02-26T04:18:33;7.00;74.10
83964;DHT22;73994;50.868;5.420;2024-02-26T04:20:58;7.00;74.00
83964;DHT22;73994;50.868;5.420;2024-02-26T04:23:25;7.00;74.60
83964;DHT22;73994;50.868;5.420;2024-02-26T04:25:50;7.00;74.00
83964;DHT22;73994;50.868;5.420;2024-02-26T04:28:18;7.00;74.40
83964;DHT22;73994;50.868;5.420;2024-02-26T04:30:47;7.00;74.50
83964;DHT22;73994;50.868;5.420;2024-02-26T04:33:13;7.00;74.60
83964;DHT22;73994;50.868;5.420;2024-02-26T04:35:39;7.00;74.20
83964;DHT22;73994;50.868;5.420;2024-02-26T04:38:04;7.00;74.20
83964;DHT22;73994;50.868;5.420;2024-02-26T04:40:30;7.00;74.40
83964;DHT22;73994;50.868;5.420;2024-02-26T04:42:56;7.00;74.70
83964;DHT22;73994;50.868;5.420;2024-02-26T04:45:22;7.00;74.60
83964;DHT22;73994;50.868;5.420;2024-02-26T04:47:48;6.90;74.80
83964;DHT22;73994;50.868;5.420;2024-02-26T04:50:14;6.90;74.80
83964;DHT22;73994;50.868;5.420;2024-02-26T04:52:41;6.90;74.60
83964;DHT22;73994;50.868;5.420;2024-02-26T04:55:07;7.00;74.70
83964;DHT22;73994;50.868;5.420;2024-02-26T04:57:33;6.90;74.70
83964;DHT22;73994;50.868;5.420;2024-02-26T04:59:58;7.00;74.60
83964;DHT22;73994;50.868;5.420;2024-02-26T05:02:24;6.90;74.50
83964;DHT22;73994;50.868;5.420;2024-02-26T05:04:50;7.00;74.50
83964;DHT22;73994;50.868;5.420;2024-02-26T05:07:16;7.00;74.60
83964;DHT22;73994;50.868;5.420;2024-02-26T05:09:43;7.00;74.60
83964;DHT22;73994;50.868;5.420;2024-02-26T05:12:09;7.00;74.70
83964;DHT22;73994;50.868;5.420;2024-02-26T05:14:35;7.00;74.60
83964;DHT22;73994;50.868;5.420;2024-02-26T05:17:01;7.00;74.80
83964;DHT22;73994;50.868;5.420;2024-02-26T05:19:27;7.00;74.60
83964;DHT22;73994;50.868;5.420;2024-02-26T05:21:52;7.00;74.50
83964;DHT22;73994;50.868;5.420;2024-02-26T05:24:18;7.00;74.30
83964;DHT22;73994;50.868;5.420;2024-02-26T05:26:47;7.00;74.70
83964;DHT22;73994;50.868;5.420;2024-02-26T05:29:13;7.00;74.50
83964;DHT22;73994;50.868;5.420;2024-02-26T05:31:41;7.00;74.70
83964;DHT22;73994;50.868;5.420;2024-02-26T05:34:07;6.90;74.70
83964;DHT22;73994;50.868;5.420;2024-02-26T05:36:32;6.90;75.00
83964;DHT22;73994;50.868;5.420;2024-02-26T05:39:00;6.90;74.70
83964;DHT22;73994;50.868;5.420;2024-02-26T05:41:26;6.90;74.90
83964;DHT22;73994;50.868;5.420;2024-02-26T05:43:54;6.90;74.50
83964;DHT22;73994;50.868;5.420;2024-02-26T05:46:20;6.90;74.70
83964;DHT22;73994;50.868;5.420;2024-02-26T05:48:48;6.90;74.70
83964;DHT22;73994;50.868;5.420;2024-02-26T05:51:14;6.90;74.50
83964;DHT22;73994;50.868;5.420;2024-02-26T05:53:41;6.90;74.70
83964;DHT22;73994;50.868;5.420;2024-02-26T05:56:06;6.90;75.00
83964;DHT22;73994;50.868;5.420;2024-02-26T05:58:32;6.90;74.70
83964;DHT22;73994;50.868;5.420;2024-02-26T06:00:58;7.00;74.70
83964;DHT22;73994;50.868;5.420;2024-02-26T06:03:25;6.90;75.10
83964;DHT22;73994;50.868;5.420;2024-02-26T06:05:51;6.90;75.40
83964;DHT22;73994;50.868;5.420;2024-02-26T06:08:17;6.90;75.20
83964;DHT22;73994;50.868;5.420;2024-02-26T06:10:42;6.90;75.30
83964;DHT22;73994;50.868;5.420;2024-02-26T06:13:08;6.90;75.30
83964;DHT22;73994;50.868;5.420;2024-02-26T06:15:34;6.90;75.30
83964;DHT22;73994;50.868;5.420;2024-02-26T06:17:59;6.90;75.50
83964;DHT22;73994;50.868;5.420;2024-02-26T06:20:25;6.90;75.70
83964;DHT22;73994;50.868;5.420;2024-02-26T06:22:51;6.90;75.30
83964;DHT22;73994;50.868;5.420;2024-02-26T06:25:16;6.90;75.50
83964;DHT22;73994;50.868;5.420;2024-02-26T06:27:42;6.90;75.70
83964;DHT22;73994;50.868;5.420;2024-02-26T06:30:08;6.90;75.50
83964;DHT22;73994;50.868;5.420;2024-02-26T06:32:36;6.80;75.30
83964;DHT22;73994;50.868;5.420;2024-02-26T06:35:02;6.90;75.60
83964;DHT22;73994;50.868;5.420;2024-02-26T06:37:32;6.80;75.90
83964;DHT22;73994;50.868;5.420;2024-02-26T06:39:59;6.80;75.70
83964;DHT22;73994;50.868;5.420;2024-02-26T06:42:25;6.80;75.60
83964;DHT22;73994;50.868;5.420;2024-02-26T06:44:51;6.80;75.50
83964;DHT22;73994;50.868;5.420;2024-02-26T06:47:16;6.80;75.20
83964;DHT22;73994;50.868;5.420;2024-02-26T06:49:42;6.80;75.30
83964;DHT22;73994;50.868;5.420;2024-02-26T06:52:09;6.80;75.40
83964;DHT22;73994;50.868;5.420;2024-02-26T06:54:34;6.80;75.60
83964;DHT22;73994;50.868;5.420;2024-02-26T06:57:00;6.80;75.40
83964;DHT22;73994;50.868;5.420;2024-02-26T06:59:26;6.80;75.50
83964;DHT22;73994;50.868;5.420;2024-02-26T07:01:51;6.80;75.10
83964;DHT22;73994;50.868;5.420;2024-02-26T07:04:17;6.80;75.10
83964;DHT22;73994;50.868;5.420;2024-02-26T07:06:43;6.90;75.10
83964;DHT22;73994;50.868;5.420;2024-02-26T07:09:09;6.80;75.00
83964;DHT22;73994;50.868;5.420;2024-02-26T07:11:35;6.90;75.10
83964;DHT22;73994;50.868;5.420;2024-02-26T07:14:00;6.90;75.00
83964;DHT22;73994;50.868;5.420;2024-02-26T07:16:26;6.90;75.00
83964;DHT22;73994;50.868;5.420;2024-02-26T07:18:52;6.80;75.30
83964;DHT22;73994;50.868;5.420;2024-02-26T07:21:18;6.80;75.20
83964;DHT22;73994;50.868;5.420;2024-02-26T07:23:44;6.90;75.00
83964;DHT22;73994;50.868;5.420;2024-02-26T07:26:10;6.90;75.30
83964;DHT22;73994;50.868;5.420;2024-02-26T07:28:37;6.90;75.20
83964;DHT22;73994;50.868;5.420;2024-02-26T07:31:03;6.90;75.10
83964;DHT22;73994;50.868;5.420;2024-02-26T07:33:29;6.90;75.10
83964;DHT22;73994;50.868;5.420;2024-02-26T07:35:54;6.90;75.20
83964;DHT22;73994;50.868;5.420;2024-02-26T07:38:20;6.90;75.30
83964;DHT22;73994;50.868;5.420;2024-02-26T07:40:46;6.90;75.10
83964;DHT22;73994;50.868;5.420;2024-02-26T07:43:12;6.90;74.90
83964;DHT22;73994;50.868;5.420;2024-02-26T07:45:37;6.90;75.10
83964;DHT22;73994;50.868;5.420;2024-02-26T07:48:03;6.90;75.00
83964;DHT22;73994;50.868;5.420;2024-02-26T07:50:29;6.90;75.00
83964;DHT22;73994;50.868;5.420;2024-02-26T07:52:55;6.90;75.30
83964;DHT22;73994;50.868;5.420;2024-02-26T07:55:20;6.90;75.10
83964;DHT22;73994;50.868;5.420;2024-02-26T07:57:47;6.90;74.90
83964;DHT22;73994;50.868;5.420;2024-02-26T08:00:13;6.90;75.00
83964;DHT22;73994;50.868;5.420;2024-02-26T08:02:42;6.90;75.00
83964;DHT22;73994;50.868;5.420;2024-02-26T08:05:09;6.90;75.10
83964;DHT22;73994;50.868;5.420;2024-02-26T08:07:34;6.90;75.00
83964;DHT22;73994;50.868;5.420;2024-02-26T08:10:00;7.00;75.10
83964;DHT22;73994;50.868;5.420;2024-02-26T08:12:25;7.00;75.10
83964;DHT22;73994;50.868;5.420;2024-02-26T08:14:51;7.00;75.20
83964;DHT22;73994;50.868;5.420;2024-02-26T08:17:17;7.00;75.00
83964;DHT22;73994;50.868;5.420;2024-02-26T08:19:42;7.00;74.60
83964;DHT22;73994;50.868;5.420;2024-02-26T08:22:08;7.00;75.00
83964;DHT22;73994;50.868;5.420;2024-02-26T08:24:35;7.00;74.90
83964;DHT22;73994;50.868;5.420;2024-02-26T08:27:01;7.00;74.80
83964;DHT22;73994;50.868;5.420;2024-02-26T08:29:27;7.00;74.80
83964;DHT22;73994;50.868;5.420;2024-02-26T08:31:53;7.00;74.90
83964;DHT22;73994;50.868;5.420;2024-02-26T08:34:19;7.00;74.60
83964;DHT22;73994;50.868;5.420;2024-02-26T08:36:44;7.00;74.40
83964;DHT22;73994;50.868;5.420;2024-02-26T08:39:10;7.00;74.60
83964;DHT22;73994;50.868;5.420;2024-02-26T08:41:35;7.00;74.70
83964;DHT22;73994;50.868;5.420;2024-02-26T08:44:01;7.00;74.60
83964;DHT22;73994;50.868;5.420;2024-02-26T08:46:27;7.00;74.60
83964;DHT22;73994;50.868;5.420;2024-02-26T08:48:53;7.00;74.30
83964;DHT22;73994;50.868;5.420;2024-02-26T08:51:18;7.00;74.50
83964;DHT22;73994;50.868;5.420;2024-02-26T08:53:44;7.00;74.40
83964;DHT22;73994;50.868;5.420;2024-02-26T08:56:10;7.10;74.60
83964;DHT22;73994;50.868;5.420;2024-02-26T08:58:42;7.10;74.70
83964;DHT22;73994;50.868;5.420;2024-02-26T09:01:08;7.10;74.70
83964;DHT22;73994;50.868;5.420;2024-02-26T09:03:34;7.20;74.50
83964;DHT22;73994;50.868;5.420;2024-02-26T09:06:00;7.20;74.70
83964;DHT22;73994;50.868;5.420;2024-02-26T09:08:25;7.20;74.20
83964;DHT22;73994;50.868;5.420;2024-02-26T09:10:51;7.20;74.50
83964;DHT22;73994;50.868;5.420;2024-02-26T09:13:17;7.40;74.30
83964;DHT22;73994;50.868;5.420;2024-02-26T09:15:44;7.40;74.20
83964;DHT22;73994;50.868;5.420;2024-02-26T09:18:09;7.40;73.80
83964;DHT22;73994;50.868;5.420;2024-02-26T09:20:35;7.40;73.80
83964;DHT22;73994;50.868;5.420;2024-02-26T09:23:01;7.50;74.10
83964;DHT22;73994;50.868;5.420;2024-02-26T09:25:26;7.50;73.80
83964;DHT22;73994;50.868;5.420;2024-02-26T09:27:53;7.50;73.70
83964;DHT22;73994;50.868;5.420;2024-02-26T09:30:18;7.50;74.00
83964;DHT22;73994;50.868;5.420;2024-02-26T09:32:46;7.60;73.40
83964;DHT22;73994;50.868;5.420;2024-02-26T09:35:13;7.70;73.60
83964;DHT22;73994;50.868;5.420;2024-02-26T09:37:39;7.80;73.10
83964;DHT22;73994;50.868;5.420;2024-02-26T09:40:05;7.80;72.70
83964;DHT22;73994;50.868;5.420;2024-02-26T09:42:37;7.90;73.00
83964;DHT22;73994;50.868;5.420;2024-02-26T09:45:11;7.90;72.70
83964;DHT22;73994;50.868;5.420;2024-02-26T09:47:38;8.00;72.60
83964;DHT22;73994;50.868;5.420;2024-02-26T09:50:06;8.00;72.50
83964;DHT22;73994;50.868;5.420;2024-02-26T09:52:34;8.00;72.50
83964;DHT22;73994;50.868;5.420;2024-02-26T09:55:04;8.10;72.70
83964;DHT22;73994;50.868;5.420;2024-02-26T09:57:30;8.20;72.40
83964;DHT22;73994;50.868;5.420;2024-02-26T09:59:59;8.20;72.20
83964;DHT22;73994;50.868;5.420;2024-02-26T10:02:30;8.10;72.00
83964;DHT22;73994;50.868;5.420;2024-02-26T10:04:57;8.10;72.00
83964;DHT22;73994;50.868;5.420;2024-02-26T10:07:27;8.10;72.30
83964;DHT22;73994;50.868;5.420;2024-02-26T10:09:55;8.10;72.00
83964;DHT22;73994;50.868;5.420;2024-02-26T10:12:21;8.20;72.10
83964;DHT22;73994;50.868;5.420;2024-02-26T10:14:48;8.20;72.50
83964;DHT22;73994;50.868;5.420;2024-02-26T10:17:14;8.10;72.00
83964;DHT22;73994;50.868;5.420;2024-02-26T10:19:40;8.10;71.80
83964;DHT22;73994;50.868;5.420;2024-02-26T10:22:06;8.00;72.50
83964;DHT22;73994;50.868;5.420;2024-02-26T10:24:31;8.00;72.50
83964;DHT22;73994;50.868;5.420;2024-02-26T10:26:57;8.00;72.50
83964;DHT22;73994;50.868;5.420;2024-02-26T10:29:24;8.00;72.20
83964;DHT22;73994;50.868;5.420;2024-02-26T10:31:53;8.00;72.60
83964;DHT22;73994;50.868;5.420;2024-02-26T10:34:19;8.00;72.90
83964;DHT22;73994;50.868;5.420;2024-02-26T10:36:45;7.90;72.60
83964;DHT22;73994;50.868;5.420;2024-02-26T10:39:14;7.80;72.90
83964;DHT22;73994;50.868;5.420;2024-02-26T10:41:41;7.80;73.30
83964;DHT22;73994;50.868;5.420;2024-02-26T10:44:12;7.80;73.30
83964;DHT22;73994;50.868;5.420;2024-02-26T10:46:40;7.70;73.10
83964;DHT22;73994;50.868;5.420;2024-02-26T10:49:10;7.70;73.30
83964;DHT22;73994;50.868;5.420;2024-02-26T10:51:38;7.60;73.10
83964;DHT22;73994;50.868;5.420;2024-02-26T10:54:04;7.60;73.10
83964;DHT22;73994;50.868;5.420;2024-02-26T10:56:34;7.60;73.10
83964;DHT22;73994;50.868;5.420;2024-02-26T10:59:04;7.60;73.20
83964;DHT22;73994;50.868;5.420;2024-02-26T11:01:31;7.70;73.40
83964;DHT22;73994;50.868;5.420;2024-02-26T11:03:58;7.80;73.50
83964;DHT22;73994;50.868;5.420;2024-02-26T11:06:26;7.80;73.70
83964;DHT22;73994;50.868;5.420;2024-02-26T11:08:52;8.00;72.90
83964;DHT22;73994;50.868;5.420;2024-02-26T11:11:18;8.10;72.60
83964;DHT22;73994;50.868;5.420;2024-02-26T11:13:46;8.30;72.00
83964;DHT22;73994;50.868;5.420;2024-02-26T11:16:22;8.40;72.10
83964;DHT22;73994;50.868;5.420;2024-02-26T11:18:49;8.50;71.00
83964;DHT22;73994;50.868;5.420;2024-02-26T11:21:18;8.60;71.10
83964;DHT22;73994;50.868;5.420;2024-02-26T11:23:46;8.80;71.20
83964;DHT22;73994;50.868;5.420;2024-02-26T11:26:13;9.00;70.40
83964;DHT22;73994;50.868;5.420;2024-02-26T11:28:41;9.20;70.00
83964;DHT22;73994;50.868;5.420;2024-02-26T11:31:08;9.40;69.80
83964;DHT22;73994;50.868;5.420;2024-02-26T11:33:34;9.60;69.00
83964;DHT22;73994;50.868;5.420;2024-02-26T11:36:11;9.80;68.40
83964;DHT22;73994;50.868;5.420;2024-02-26T11:38:37;9.80;67.70
83964;DHT22;73994;50.868;5.420;2024-02-26T11:41:04;10.00;67.80
83964;DHT22;73994;50.868;5.420;2024-02-26T11:43:49;10.10;67.30
83964;DHT22;73994;50.868;5.420;2024-02-26T11:46:25;10.40;67.20
83964;DHT22;73994;50.868;5.420;2024-02-26T11:48:55;10.70;66.50
83964;DHT22;73994;50.868;5.420;2024-02-26T11:51:25;10.90;66.00
83964;DHT22;73994;50.868;5.420;2024-02-26T11:53:52;11.00;65.50
83964;DHT22;73994;50.868;5.420;2024-02-26T12:01:46;11.70;64.40
83964;DHT22;73994;50.868;5.420;2024-02-26T12:04:22;11.90;64.80
83964;DHT22;73994;50.868;5.420;2024-02-26T12:06:56;12.10;63.50
83964;DHT22;73994;50.868;5.420;2024-02-26T12:11:57;12.50;63.30
83964;DHT22;73994;50.868;5.420;2024-02-26T12:14:25;12.80;61.80
83964;DHT22;73994;50.868;5.420;2024-02-26T12:16:52;13.00;61.60
83964;DHT22;73994;50.868;5.420;2024-02-26T12:19:18;13.10;61.40
83964;DHT22;73994;50.868;5.420;2024-02-26T12:21:44;13.10;60.80
83964;DHT22;73994;50.868;5.420;2024-02-26T12:24:12;13.30;60.70
83964;DHT22;73994;50.868;5.420;2024-02-26T12:26:39;13.40;59.80
83964;DHT22;73994;50.868;5.420;2024-02-26T12:29:05;13.50;59.60
83964;DHT22;73994;50.868;5.420;2024-02-26T12:31:32;13.60;60.30
83964;DHT22;73994;50.868;5.420;2024-02-26T12:34:00;13.60;59.60
83964;DHT22;73994;50.868;5.420;2024-02-26T12:36:26;13.30;59.90
83964;DHT22;73994;50.868;5.420;2024-02-26T12:38:52;13.30;58.50
83964;DHT22;73994;50.868;5.420;2024-02-26T12:41:17;13.10;59.60
83964;DHT22;73994;50.868;5.420;2024-02-26T12:43:43;12.90;60.40
83964;DHT22;73994;50.868;5.420;2024-02-26T12:46:10;12.60;61.70
83964;DHT22;73994;50.868;5.420;2024-02-26T12:48:36;12.50;60.90
83964;DHT22;73994;50.868;5.420;2024-02-26T12:51:02;12.20;60.70
83964;DHT22;73994;50.868;5.420;2024-02-26T12:53:28;12.00;62.00
83964;DHT22;73994;50.868;5.420;2024-02-26T12:55:56;11.80;62.20
83964;DHT22;73994;50.868;5.420;2024-02-26T12:58:22;11.70;62.00
83964;DHT22;73994;50.868;5.420;2024-02-26T13:00:51;11.40;61.80
83964;DHT22;73994;50.868;5.420;2024-02-26T13:03:18;11.10;63.50
83964;DHT22;73994;50.868;5.420;2024-02-26T13:05:45;11.00;63.90
83964;DHT22;73994;50.868;5.420;2024-02-26T13:08:17;10.90;63.40
83964;DHT22;73994;50.868;5.420;2024-02-26T13:10:45;10.80;64.50
83964;DHT22;73994;50.868;5.420;2024-02-26T13:13:10;10.70;64.50
83964;DHT22;73994;50.868;5.420;2024-02-26T13:15:36;10.60;65.80
83964;DHT22;73994;50.868;5.420;2024-02-26T13:18:18;10.60;65.10
83964;DHT22;73994;50.868;5.420;2024-02-26T13:20:43;10.60;65.90
83964;DHT22;73994;50.868;5.420;2024-02-26T13:23:13;10.50;64.40
83964;DHT22;73994;50.868;5.420;2024-02-26T13:25:39;10.30;65.00
83964;DHT22;73994;50.868;5.420;2024-02-26T13:28:12;10.20;66.20
83964;DHT22;73994;50.868;5.420;2024-02-26T13:30:39;10.20;65.60
83964;DHT22;73994;50.868;5.420;2024-02-26T13:33:11;10.10;65.30
83964;DHT22;73994;50.868;5.420;2024-02-26T13:35:38;9.90;65.60
83964;DHT22;73994;50.868;5.420;2024-02-26T13:38:05;9.80;66.20
83964;DHT22;73994;50.868;5.420;2024-02-26T13:40:32;9.70;66.90
83964;DHT22;73994;50.868;5.420;2024-02-26T13:42:58;9.60;67.80
83964;DHT22;73994;50.868;5.420;2024-02-26T13:45:23;9.70;66.90
83964;DHT22;73994;50.868;5.420;2024-02-26T13:47:49;9.70;67.00
83964;DHT22;73994;50.868;5.420;2024-02-26T13:50:15;9.60;67.40
83964;DHT22;73994;50.868;5.420;2024-02-26T13:52:41;9.50;66.90
83964;DHT22;73994;50.868;5.420;2024-02-26T13:55:07;9.40;67.70
83964;DHT22;73994;50.868;5.420;2024-02-26T13:57:33;9.40;67.90
83964;DHT22;73994;50.868;5.420;2024-02-26T13:59:58;9.40;68.70
83964;DHT22;73994;50.868;5.420;2024-02-26T14:02:24;9.40;68.40
83964;DHT22;73994;50.868;5.420;2024-02-26T14:04:50;9.40;68.50
83964;DHT22;73994;50.868;5.420;2024-02-26T14:07:16;9.40;68.70
83964;DHT22;73994;50.868;5.420;2024-02-26T14:09:44;9.30;68.40
83964;DHT22;73994;50.868;5.420;2024-02-26T14:12:11;9.30;68.60
83964;DHT22;73994;50.868;5.420;2024-02-26T14:14:36;9.20;68.60
83964;DHT22;73994;50.868;5.420;2024-02-26T14:17:04;9.20;69.00
83964;DHT22;73994;50.868;5.420;2024-02-26T14:19:31;9.20;68.40
83964;DHT22;73994;50.868;5.420;2024-02-26T14:21:57;9.20;68.70
83964;DHT22;73994;50.868;5.420;2024-02-26T14:24:22;9.20;69.40
83964;DHT22;73994;50.868;5.420;2024-02-26T14:26:48;9.20;69.40
83964;DHT22;73994;50.868;5.420;2024-02-26T14:29:14;9.20;69.00
83964;DHT22;73994;50.868;5.420;2024-02-26T14:31:40;9.20;68.80
83964;DHT22;73994;50.868;5.420;2024-02-26T14:34:07;9.10;68.30
83964;DHT22;73994;50.868;5.420;2024-02-26T14:36:34;9.00;68.20
83964;DHT22;73994;50.868;5.420;2024-02-26T14:39:00;8.90;68.80
83964;DHT22;73994;50.868;5.420;2024-02-26T14:41:25;8.90;69.40
83964;DHT22;73994;50.868;5.420;2024-02-26T14:43:51;8.80;68.70
83964;DHT22;73994;50.868;5.420;2024-02-26T14:46:17;8.80;69.00
83964;DHT22;73994;50.868;5.420;2024-02-26T14:48:42;8.70;69.60
83964;DHT22;73994;50.868;5.420;2024-02-26T14:51:08;8.70;69.30
83964;DHT22;73994;50.868;5.420;2024-02-26T14:53:34;8.70;69.50
83964;DHT22;73994;50.868;5.420;2024-02-26T14:55:59;8.60;70.00
83964;DHT22;73994;50.868;5.420;2024-02-26T14:58:25;8.60;68.80
83964;DHT22;73994;50.868;5.420;2024-02-26T15:00:51;8.60;69.40
83964;DHT22;73994;50.868;5.420;2024-02-26T15:03:16;8.60;69.20
83964;DHT22;73994;50.868;5.420;2024-02-26T15:05:42;8.60;69.20
83964;DHT22;73994;50.868;5.420;2024-02-26T15:08:08;8.60;69.00
83964;DHT22;73994;50.868;5.420;2024-02-26T15:10:35;8.60;68.80
83964;DHT22;73994;50.868;5.420;2024-02-26T15:13:01;8.60;69.50
83964;DHT22;73994;50.868;5.420;2024-02-26T15:15:27;8.50;69.80
83964;DHT22;73994;50.868;5.420;2024-02-26T15:17:53;8.50;69.20
83964;DHT22;73994;50.868;5.420;2024-02-26T15:20:19;8.50;69.30
83964;DHT22;73994;50.868;5.420;2024-02-26T15:22:44;8.50;69.60
83964;DHT22;73994;50.868;5.420;2024-02-26T15:25:12;8.50;69.40
83964;DHT22;73994;50.868;5.420;2024-02-26T15:27:37;8.60;69.90
83964;DHT22;73994;50.868;5.420;2024-02-26T15:30:03;8.60;69.60
83964;DHT22;73994;50.868;5.420;2024-02-26T15:32:29;8.60;69.10
83964;DHT22;73994;50.868;5.420;2024-02-26T15:34:55;8.50;69.80
83964;DHT22;73994;50.868;5.420;2024-02-26T15:37:22;8.50;69.50
83964;DHT22;73994;50.868;5.420;2024-02-26T15:39:48;8.40;69.10
83964;DHT22;73994;50.868;5.420;2024-02-26T15:42:13;8.40;70.20
83964;DHT22;73994;50.868;5.420;2024-02-26T15:44:40;8.40;69.90
83964;DHT22;73994;50.868;5.420;2024-02-26T15:47:06;8.30;70.00
83964;DHT22;73994;50.868;5.420;2024-02-26T15:49:32;8.30;69.80